Time;durP1;ratioP1;P1;durP2;ratioP2;P2;SDS_P1;SDS_P2;PMS_P1;PMS_P2;Temp;Humidity;BMP_temperature;BMP_pressure;BME280_temperature;BME280_humidity;BME280_pressure;Samples;Min_cycle;Max_cycle;Signal;HPM_P1;HPM_P2
2021/12/08 00:00:19;;;;;;;;;;;;;;;0.01;93.33;99838.80;1731721;81;21095;-65
2021/12/08 00:02:46;;;;;;;13.37;11.33;;;;;;;0.02;93.26;99843.91;1698943;83;20163;-67
2021/12/08 00:05:14;;;;;;;;;;;;;;;-0.01;93.41;99846.30;1702648;83;21028;-67
2021/12/08 00:07:41;;;;;;;12.25;10.03;;;;;;;-0.01;93.31;99846.30;1704274;83;20136;-68
2021/12/08 00:13:03;;;;;;;9.70;8.67;;;;;;;-0.06;93.08;99848.96;1697269;83;21061;-68
2021/12/08 00:15:39;;;;;;;11.03;9.80;;;;;;;-0.06;93.01;99848.96;1692922;83;21210;-66
2021/12/08 00:18:10;;;;;;;11.93;10.10;;;;;;;-0.08;93.01;99847.78;1692622;83;21056;-66
2021/12/08 00:20:39;;;;;;;13.10;10.97;;;;;;;-0.07;93.23;99846.02;1691142;83;20982;-67
2021/12/08 00:23:07;;;;;;;11.57;10.37;;;;;;;-0.09;92.96;99847.94;1708358;82;21021;-66
2021/12/08 00:25:35;;;;;;;12.80;11.43;;;;;;;-0.09;93.04;99847.94;1699983;82;20967;-66
2021/12/08 00:28:05;;;;;;;11.93;10.60;;;;;;;-0.09;93.22;99853.17;1706892;82;21065;-67
2021/12/08 00:30:32;;;;;;;12.23;10.67;;;;;;;-0.07;93.15;99859.11;1699355;82;21045;-68
2021/12/08 00:32:59;;;;;;;11.90;10.53;;;;;;;-0.04;93.28;99851.82;1708760;82;21081;-67
2021/12/08 00:35:27;;;;;;;13.95;11.88;;;;;;;-0.01;93.25;99862.51;1721002;82;21549;-67
2021/12/08 00:37:57;;;;;;;11.23;9.17;;;;;;;0.02;93.15;99866.19;1726963;81;21073;-66
2021/12/08 00:40:27;;;;;;;11.63;10.43;;;;;;;-0.02;92.55;99866.08;1727477;82;21453;-66
2021/12/08 00:42:54;;;;;;;10.50;9.40;;;;;;;-0.03;92.62;99867.88;1727203;81;21131;-66
2021/12/08 00:45:21;;;;;;;;;;;;;;;-0.47;92.29;99816.66;1726172;80;21389;-67
2021/12/08 00:47:49;;;;;;;12.45;11.10;;;;;;;-0.16;92.71;99855.97;1727358;82;20109;-67
2021/12/08 00:50:17;;;;;;;13.37;10.77;;;;;;;-0.25;93.21;99857.56;1728755;81;21049;-67
2021/12/08 00:52:43;;;;;;;12.13;10.37;;;;;;;-0.23;93.45;99860.88;1726104;81;21089;-66
2021/12/08 00:55:13;;;;;;;12.00;10.00;;;;;;;-0.21;93.43;99846.72;1727444;80;21461;-66
2021/12/08 00:57:40;;;;;;;11.87;10.67;;;;;;;-0.18;93.46;99852.65;1728130;81;21101;-66
2021/12/08 01:00:15;;;;;;;10.78;9.63;;;;;;;-0.16;93.47;99846.31;1725872;81;21548;-66
2021/12/08 01:02:42;;;;;;;11.53;8.87;;;;;;;-0.17;93.19;99843.81;1696362;83;21037;-66
2021/12/08 01:05:13;;;;;;;9.13;8.23;;;;;;;-0.20;93.24;99839.19;1694803;83;21474;-67
2021/12/08 01:07:40;;;;;;;15.13;12.27;;;;;;;-0.24;93.15;99856.63;1692581;83;21482;-67
2021/12/08 01:10:11;;;;;;;13.48;12.10;;;;;;;-0.24;93.38;99844.84;1696940;83;21065;-66
2021/12/08 01:12:39;;;;;;;17.23;11.40;;;;;;;-0.24;93.70;99849.59;1692437;81;21009;-65
2021/12/08 01:15:07;;;;;;;11.17;9.47;;;;;;;-0.21;93.86;99848.03;1693480;83;21041;-65
2021/12/08 01:17:34;;;;;;;12.53;9.87;;;;;;;-0.13;93.90;99839.51;1695651;83;22248;-67
2021/12/08 01:20:01;;;;;;;13.20;11.33;;;;;;;-0.10;93.79;99832.67;1697469;83;21046;-66
2021/12/08 01:22:27;;;;;;;10.98;9.30;;;;;;;-0.07;93.65;99836.35;1657871;83;21079;-65
2021/12/08 01:24:53;;;;;;;12.68;9.68;;;;;;;-0.05;93.56;99834.91;1618721;87;21659;-67
2021/12/08 01:27:19;;;;;;;13.72;9.78;;;;;;;-0.06;93.31;99842.41;1601163;88;21064;-65
2021/12/08 01:29:48;;;;;;;14.38;12.25;;;;;;;-0.10;93.27;99837.09;1609504;88;21077;-66
2021/12/08 01:32:15;;;;;;;13.53;10.17;;;;;;;-0.08;93.44;99843.84;1621256;87;21080;-67
2021/12/08 01:34:42;;;;;;;12.53;11.20;;;;;;;-0.07;93.52;99842.08;1657288;84;21061;-67
2021/12/08 01:37:08;;;;;;;13.67;11.53;;;;;;;-0.05;93.58;99836.23;1669346;84;21018;-66
2021/12/08 01:39:34;;;;;;;;;;;;;;;-0.01;93.68;99837.61;1661014;84;22120;-65
2021/12/08 01:42:00;;;;;;;12.77;10.90;;;;;;;-0.01;93.39;99839.75;1670587;84;20100;-67
2021/12/08 01:47:11;;;;;;;14.43;11.77;;;;;;;-0.10;93.64;99835.30;1605282;88;21456;-66
2021/12/08 01:49:37;;;;;;;11.57;10.38;;;;;;;-0.12;93.72;99839.84;1592236;89;20979;-67
2021/12/08 01:52:04;;;;;;;12.68;10.88;;;;;;;-0.13;93.89;99840.81;1601164;89;21132;-66
2021/12/08 01:54:31;;;;;;;14.43;10.93;;;;;;;-0.13;93.97;99837.34;1610520;88;21085;-67
2021/12/08 01:57:00;;;;;;;16.07;12.03;;;;;;;-0.10;94.14;99840.53;1616152;87;20999;-67
2021/12/08 01:59:26;;;;;;;13.57;11.77;;;;;;;-0.05;94.13;99831.80;1611180;87;21165;-66
2021/12/08 02:01:52;;;;;;;14.00;12.55;;;;;;;-0.03;93.87;99832.98;1634362;84;21029;-66
2021/12/08 02:04:18;;;;;;;12.25;10.43;;;;;;;-0.02;93.85;99826.77;1609048;88;21141;-65
2021/12/08 02:06:47;;;;;;;12.33;10.93;;;;;;;-0.01;93.81;99825.83;1610933;87;21088;-66
2021/12/08 02:09:16;;;;;;;13.73;11.27;;;;;;;0.01;93.74;99825.20;1621914;86;20991;-65
2021/12/08 02:11:46;;;;;;;11.70;9.27;;;;;;;0.02;93.67;99821.64;1616276;83;21109;-65
2021/12/08 02:14:14;;;;;;;15.00;11.37;;;;;;;0.01;93.57;99821.28;1618365;87;21112;-66
2021/12/08 02:16:41;;;;;;;14.03;12.50;;;;;;;-0.35;93.54;99755.88;1605909;87;21050;-66
2021/12/08 02:19:07;;;;;;;12.00;10.30;;;;;;;0.04;93.68;99808.38;1619866;87;21039;-66
2021/12/08 02:21:38;;;;;;;14.33;11.85;;;;;;;0.07;93.53;99812.88;1619984;87;21094;-66
2021/12/08 02:24:09;;;;;;;14.47;11.27;;;;;;;0.11;93.57;99817.37;1596075;86;21142;-66
2021/12/08 02:26:37;;;;;;;13.40;10.63;;;;;;;0.09;93.23;99816.67;1611424;87;21066;-66
2021/12/08 02:29:10;;;;;;;13.47;10.67;;;;;;;0.08;93.19;99809.30;1630318;86;21511;-66
2021/12/08 02:31:47;;;;;;;13.17;9.90;;;;;;;0.05;93.12;99821.35;1623265;86;21107;-67
2021/12/08 02:47:54;;;;;;;15.87;12.17;;;;;;;0.05;93.49;99821.84;1651304;85;21112;-66
2021/12/08 02:50:25;;;;;;;16.67;11.23;;;;;;;0.03;93.29;99826.39;1666518;85;21042;-66
2021/12/08 02:52:53;;;;;;;16.30;11.07;;;;;;;0.03;93.43;99811.98;1658118;85;21062;-67
2021/12/08 02:55:20;;;;;;;15.20;11.83;;;;;;;0.03;93.56;99814.11;1665773;83;21134;-65
2021/12/08 02:57:47;;;;;;;16.03;12.03;;;;;;;0.06;93.54;99813.00;1662343;85;21398;-66
2021/12/08 03:00:23;;;;;;;14.45;10.98;;;;;;;0.06;93.42;99814.31;1663412;85;21127;-66
2021/12/08 03:02:47;;;;;;;14.40;11.13;;;;;;;0.02;93.34;99809.00;1659561;85;21524;-65
2021/12/08 03:05:15;;;;;;;14.73;12.10;;;;;;;-0.03;93.52;99813.34;1665664;85;21030;-65
2021/12/08 03:07:42;;;;;;;14.35;11.45;;;;;;;-0.06;93.63;99809.66;1661538;85;21089;-65
2021/12/08 03:10:17;;;;;;;13.18;11.25;;;;;;;-0.03;93.85;99808.09;1666145;85;21090;-65
2021/12/08 03:12:46;;;;;;;14.15;11.68;;;;;;;-0.01;93.98;99810.92;1640051;85;21581;-64
2021/12/08 03:15:16;;;;;;;13.27;10.40;;;;;;;0.03;93.98;99808.05;1657080;85;20995;-65
2021/12/08 03:17:43;;;;;;;14.23;11.60;;;;;;;0.06;93.84;99814.31;1658838;85;21093;-65
2021/12/08 03:20:15;;;;;;;13.93;11.23;;;;;;;0.04;93.71;99818.41;1658237;85;21042;-65
2021/12/08 03:22:47;;;;;;;12.80;10.63;;;;;;;0.04;93.88;99811.85;1665643;84;20991;-65
2021/12/08 03:25:17;;;;;;;13.53;10.13;;;;;;;0.08;94.02;99811.11;1654017;85;22292;-65
2021/12/08 03:27:51;;;;;;;18.13;13.80;;;;;;;0.07;93.74;99815.98;1665128;85;21141;-66
2021/12/08 03:30:19;;;;;;;14.93;12.00;;;;;;;0.08;93.77;99810.62;1664470;85;21094;-65
2021/12/08 03:32:43;;;;;;;16.80;12.47;;;;;;;0.03;93.87;99794.95;1658329;85;21113;-67
2021/12/08 03:35:16;;;;;;;11.43;9.13;;;;;;;0.12;93.80;99813.31;1664157;82;21014;-65
2021/12/08 03:37:46;;;;;;;15.03;10.43;;;;;;;0.08;93.32;99806.69;1665415;85;21518;-66
2021/12/08 03:40:17;;;;;;;13.73;10.37;;;;;;;0.01;93.42;99812.11;1664983;85;21034;-66
2021/12/08 03:42:47;;;;;;;12.70;10.97;;;;;;;-0.05;93.53;99804.30;1664665;85;21003;-65
2021/12/08 03:45:18;;;;;;;11.63;9.63;;;;;;;-0.04;93.61;99811.66;1657456;84;21478;-66
2021/12/08 03:47:48;;;;;;;12.13;10.60;;;;;;;-0.06;93.66;99800.49;1659743;85;21851;-66
2021/12/08 03:50:18;;;;;;;17.00;11.37;;;;;;;-0.07;93.72;99799.67;1664795;85;20999;-64
2021/12/08 03:52:44;;;;;;;12.23;10.83;;;;;;;-0.02;93.88;99804.50;1665690;85;21328;-64
2021/12/08 03:55:14;;;;;;;11.60;10.43;;;;;;;0.01;93.84;99796.38;1651510;84;21106;-64
2021/12/08 03:57:41;;;;;;;12.80;10.73;;;;;;;0.05;93.70;99802.19;1651812;85;20970;-66
2021/12/08 04:00:17;;;;;;;14.63;11.07;;;;;;;0.06;93.49;99805.14;1659260;84;21026;-65
2021/12/08 04:02:44;;;;;;;12.70;10.10;;;;;;;0.05;93.43;99811.36;1665836;85;21039;-66
2021/12/08 04:05:13;;;;;;;12.73;9.30;;;;;;;0.04;93.31;99797.44;1664246;85;21061;-68
2021/12/08 04:07:44;;;;;;;13.70;11.90;;;;;;;-0.01;92.99;99799.62;1655328;85;21026;-65
2021/12/08 04:10:15;;;;;;;13.20;10.43;;;;;;;-0.04;93.03;99798.11;1660955;85;21059;-65
2021/12/08 04:12:36;;;;;;;14.33;11.83;;;;;;;-0.08;93.34;99799.31;1657299;84;21038;-64
2021/12/08 04:15:05;;;;;;;14.07;12.10;;;;;;;-0.09;93.48;99805.53;1666042;85;21031;-62
2021/12/08 04:17:40;;;;;;;16.77;11.50;;;;;;;-0.06;93.70;99803.97;1666186;85;21157;-61
2021/12/08 04:20:12;;;;;;;15.80;10.57;;;;;;;-0.04;93.56;99811.66;1655714;85;21372;-62
2021/12/08 04:22:43;;;;;;;15.03;10.87;;;;;;;-0.07;93.44;99809.33;1655539;82;21094;-64
2021/12/08 04:25:15;;;;;;;11.90;10.27;;;;;;;-0.10;93.50;99814.34;1664668;85;21053;-68
2021/12/08 04:27:43;;;;;;;13.17;10.47;;;;;;;-0.08;93.74;99808.48;1664859;85;21082;-63
2021/12/08 04:30:15;;;;;;;16.50;11.93;;;;;;;-0.06;93.79;99803.97;1663769;85;21042;-64
2021/12/08 04:32:43;;;;;;;13.67;11.30;;;;;;;-0.07;93.62;99808.84;1600217;88;21065;-64
2021/12/08 04:35:11;;;;;;;18.37;12.13;;;;;;;-0.08;93.80;99811.10;1638344;86;21050;-64
2021/12/08 04:37:44;;;;;;;13.07;10.07;;;;;;;-0.07;93.77;99806.71;1642931;85;21537;-67
2021/12/08 04:40:26;;;;;;;13.77;9.83;;;;;;;-0.07;93.95;99793.61;1636937;86;21069;-66
2021/12/08 04:43:10;;;;;;;12.82;10.50;;;;;;;-0.05;93.91;99795.62;1590481;88;21127;-66
2021/12/08 04:45:39;;;;;;;12.30;9.57;;;;;;;-0.07;93.69;99804.09;1631408;85;20971;-64
2021/12/08 04:48:15;;;;;;;15.50;12.43;;;;;;;-0.32;93.81;99776.09;1664995;84;21469;-63
2021/12/08 05:10:00;;;;;;;14.23;10.13;;;;;;;-0.08;94.31;99816.83;1647902;85;21092;-64
2021/12/08 05:12:32;;;;;;;16.50;10.43;;;;;;;-0.06;94.27;99826.69;1675046;85;20994;-65
2021/12/08 05:15:16;;;;;;;13.63;10.30;;;;;;;-0.06;94.23;99826.23;1688793;83;21085;-66
2021/12/08 05:17:54;;;;;;;12.70;10.63;;;;;;;-0.05;94.07;99821.81;1677281;83;21077;-65
2021/12/08 05:20:30;;;;;;;10.60;9.17;;;;;;;-0.07;93.98;99827.19;1688321;83;21074;-65
2021/12/08 05:23:05;;;;;;;14.10;11.73;;;;;;;-0.06;94.05;99830.63;1680073;82;21033;-64
2021/12/08 05:25:34;;;;;;;11.93;9.97;;;;;;;-0.08;94.09;99822.07;1663371;85;21125;-65
2021/12/08 05:28:05;;;;;;;11.77;9.37;;;;;;;-0.08;94.19;99826.82;1661007;85;21038;-63
2021/12/08 05:30:37;;;;;;;12.10;9.37;;;;;;;-0.06;94.21;99824.08;1660720;85;20999;-63
2021/12/08 05:33:07;;;;;;;12.77;9.60;;;;;;;-0.10;93.97;99822.69;1656125;85;21094;-63
2021/12/08 05:35:34;;;;;;;12.53;9.20;;;;;;;-0.12;94.26;99821.98;1665257;85;21020;-65
2021/12/08 05:38:01;;;;;;;10.90;9.23;;;;;;;-0.08;94.52;99828.62;1662475;85;21035;-65
2021/12/08 05:40:53;;;;;;;10.00;8.37;;;;;;;-0.05;94.51;99830.98;1655992;85;21126;-67
2021/12/08 05:43:21;;;;;;;11.17;9.03;;;;;;;-0.03;94.40;99827.75;1654754;85;21112;-66
2021/12/08 05:45:51;;;;;;;11.90;8.13;;;;;;;-0.06;94.30;99832.78;1657594;85;21006;-64
2021/12/08 05:48:19;;;;;;;11.57;9.37;;;;;;;-0.03;94.50;99829.06;1660941;85;21017;-72
2021/12/08 05:51:03;;;;;;;11.03;8.80;;;;;;;-0.18;94.46;99801.57;1660952;85;21042;-63
2021/12/08 05:53:23;;;;;;;10.80;9.17;;;;;;;0.02;94.46;99825.57;1661238;85;21605;-64
2021/12/08 05:55:50;;;;;;;11.37;8.30;;;;;;;0.04;94.41;99834.13;1672597;84;21057;-67
2021/12/08 05:58:20;;;;;;;8.97;7.33;;;;;;;0.03;94.25;99832.94;1681191;83;21011;-63
2021/12/08 06:01:04;;;;;;;9.67;8.07;;;;;;;-0.02;93.94;99839.88;1691084;83;21041;-65
2021/12/08 06:03:32;;;;;;;12.57;9.20;;;;;;;0.00;94.10;99837.98;1687288;83;20982;-64
2021/12/08 06:05:59;;;;;;;11.70;8.10;;;;;;;0.00;94.22;99836.67;1680839;83;21602;-67
2021/12/08 06:08:28;;;;;;;9.98;8.00;;;;;;;-0.01;94.13;99833.69;1688188;83;21003;-67
2021/12/08 06:10:58;;;;;;;9.30;8.27;;;;;;;-0.03;94.08;99834.30;1674709;83;21070;-65
2021/12/08 06:13:25;;;;;;;11.17;8.97;;;;;;;-0.04;94.34;99832.63;1683566;82;21984;-66
2021/12/08 06:15:54;;;;;;;10.93;8.73;;;;;;;-0.03;94.41;99834.30;1691750;84;21049;-68
2021/12/08 06:18:24;;;;;;;9.10;6.77;;;;;;;-0.05;94.24;99836.23;1693639;85;21065;-67
2021/12/08 06:20:56;;;;;;;9.03;7.30;;;;;;;-0.07;94.33;99833.73;1686669;83;21079;-67
2021/12/08 06:23:23;;;;;;;9.33;8.13;;;;;;;-0.07;94.50;99836.35;1657225;84;21589;-67
2021/12/08 06:25:50;;;;;;;10.27;8.10;;;;;;;-0.05;94.66;99835.73;1646950;86;21218;-66
2021/12/08 06:28:16;;;;;;;11.13;8.33;;;;;;;-0.02;94.67;99838.56;1647944;86;21015;-67
2021/12/08 06:30:49;;;;;;;11.40;7.77;;;;;;;0.00;94.73;99836.67;1647707;86;21078;-67
2021/12/08 06:33:16;;;;;;;12.40;9.40;;;;;;;0.03;94.76;99844.24;1644564;85;21017;-68
2021/12/08 06:35:51;;;;;;;7.37;6.53;;;;;;;0.07;94.77;99843.50;1636122;87;21038;-65
2021/12/08 06:38:19;;;;;;;11.23;9.20;;;;;;;0.08;94.67;99836.82;1645419;87;21120;-66
2021/12/08 06:40:53;;;;;;;9.23;7.27;;;;;;;0.10;94.69;99834.89;1646055;86;21035;-68
2021/12/08 06:43:26;;;;;;;7.83;6.67;;;;;;;0.11;94.38;99834.41;1647678;86;21031;-67
2021/12/08 06:45:56;;;;;;;9.00;7.17;;;;;;;0.10;94.36;99830.97;1680846;84;21189;-67
2021/12/08 06:48:27;;;;;;;9.83;7.90;;;;;;;0.09;94.41;99834.53;1659411;86;21602;-68
2021/12/08 06:50:59;;;;;;;8.70;7.17;;;;;;;0.12;94.56;99830.34;1644877;87;21634;-65
2021/12/08 06:53:27;;;;;;;7.93;6.97;;;;;;;0.15;94.52;99830.55;1646184;86;21607;-64
2021/12/08 06:55:59;;;;;;;7.90;6.97;;;;;;;0.16;94.39;99834.84;1649333;84;21038;-66
2021/12/08 06:58:29;;;;;;;7.60;6.80;;;;;;;0.16;94.27;99830.42;1677245;84;21533;-66
2021/12/08 07:04:27;;;;;;;7.77;6.43;;;;;;;0.15;94.18;99830.55;1565454;88;21013;-63
2021/12/08 07:07:00;;;;;;;7.93;6.50;;;;;;;0.14;94.18;99835.46;1666317;84;21042;-63
2021/12/08 07:09:47;;;;;;;7.87;6.50;;;;;;;0.15;94.32;99840.58;1676243;84;21482;-64
2021/12/08 07:12:21;;;;;;;9.17;7.60;;;;;;;0.13;94.18;99821.53;1677092;83;21505;-63
2021/12/08 07:14:59;;;;;;;8.60;7.03;;;;;;;0.13;94.10;99825.92;1620593;87;21106;-64
2021/12/08 07:17:30;;;;;;;7.67;5.87;;;;;;;0.14;94.29;99817.11;1676169;85;21060;-64
2021/12/08 07:20:33;;;;;;;6.60;5.93;;;;;;;0.15;94.16;99833.17;1674330;85;21139;-63
2021/12/08 07:22:29;;;;;;;7.73;5.47;;;;;;;0.14;94.18;99824.98;1664496;83;21090;-64
2021/12/08 07:24:59;;;;;;;7.73;6.20;;;;;;;0.16;94.29;99826.48;1619282;87;21003;-63
2021/12/08 07:27:33;;;;;;;7.17;6.10;;;;;;;0.18;94.23;99825.87;1636596;86;21120;-65
2021/12/08 07:30:05;;;;;;;6.00;5.47;;;;;;;0.19;94.18;99830.16;1674833;84;21060;-65
2021/12/08 07:32:36;;;;;;;5.40;4.90;;;;;;;0.21;94.02;99826.11;1674090;84;21050;-65
2021/12/08 07:35:09;;;;;;;6.37;5.13;;;;;;;0.19;93.98;99830.66;1647615;85;21037;-63
2021/12/08 07:37:36;;;;;;;5.87;5.33;;;;;;;0.17;94.01;99825.55;1675685;85;21049;-63
2021/12/08 07:40:11;;;;;;;5.65;5.15;;;;;;;-0.02;94.08;99789.63;1676489;84;21061;-65
2021/12/08 07:42:44;;;;;;;7.37;5.50;;;;;;;0.21;94.19;99812.15;1674696;85;21533;-63
2021/12/08 07:45:16;;;;;;;7.20;5.67;;;;;;;0.20;93.95;99819.19;1674727;84;21058;-62
2021/12/08 07:47:43;;;;;;;5.57;4.97;;;;;;;0.19;93.92;99810.51;1676701;84;21050;-65
2021/12/08 07:50:23;;;;;;;7.63;6.23;;;;;;;0.19;93.89;99820.98;1677215;84;21022;-64
2021/12/08 07:52:53;;;;;;;9.17;7.67;;;;;;;0.18;93.87;99816.70;1676864;84;21014;-64
2021/12/08 07:55:25;;;;;;;12.37;8.73;;;;;;;0.18;93.94;99816.70;1675301;84;21032;-65
2021/12/08 07:57:54;;;;;;;9.17;7.77;;;;;;;0.17;93.92;99828.16;1683429;84;21059;-65
2021/12/08 08:00:37;;;;;;;7.97;6.83;;;;;;;0.16;93.93;99823.05;1677615;83;21049;-64
2021/12/08 08:03:05;;;;;;;7.73;6.93;;;;;;;0.17;93.91;99822.06;1674065;85;21014;-61
2021/12/08 08:05:33;;;;;;;6.70;5.83;;;;;;;0.13;93.84;99825.47;1676465;84;21068;-64
2021/12/08 08:08:04;;;;;;;6.53;5.60;;;;;;;0.08;93.97;99817.17;1676830;84;21038;-75
2021/12/08 08:10:38;;;;;;;9.50;7.57;;;;;;;0.04;94.07;99823.64;1677354;84;21018;-76
2021/12/08 08:13:07;;;;;;;7.70;6.27;;;;;;;0.01;94.26;99814.73;1675832;84;21374;-74
2021/12/08 08:15:39;;;;;;;8.43;5.67;;;;;;;0.04;94.56;99818.41;1678199;84;21002;-71
2021/12/08 08:18:09;;;;;;;8.00;6.80;;;;;;;0.02;94.40;99815.09;1665765;84;21130;-74
2021/12/08 08:20:40;;;;;;;9.03;7.10;;;;;;;0.04;94.58;99802.68;1648907;85;21074;-73
2021/12/08 08:23:07;;;;;;;10.27;7.30;;;;;;;0.07;94.69;99812.05;1638461;85;21058;-74
2021/12/08 08:25:39;;;;;;;12.28;7.85;;;;;;;0.08;94.67;99808.48;1683854;84;21089;-72
2021/12/08 08:28:06;;;;;;;9.80;6.37;;;;;;;0.08;94.49;99800.63;1645102;85;21042;-73
2021/12/08 08:30:41;;;;;;;9.13;7.07;;;;;;;0.07;94.51;99806.33;1650010;85;21526;-75
2021/12/08 08:33:07;;;;;;;13.30;8.63;;;;;;;0.07;94.50;99797.16;1663233;83;21173;-74
2021/12/08 08:35:49;;;;;;;9.03;6.40;;;;;;;0.10;94.60;99789.52;1663267;85;21027;-73
2021/12/08 08:38:24;;;;;;;8.90;5.87;;;;;;;0.09;94.43;99792.60;1674449;84;21053;-74
2021/12/08 08:40:55;;;;;;;7.63;5.00;;;;;;;0.04;94.23;99777.78;1654552;85;21113;-74
2021/12/08 08:43:22;;;;;;;7.50;6.03;;;;;;;-0.01;94.30;99793.07;1676567;85;21122;-72
2021/12/08 08:46:00;;;;;;;13.57;7.23;;;;;;;-0.01;94.46;99793.07;1674721;84;20995;-70
2021/12/08 08:48:46;;;;;;;11.83;7.93;;;;;;;-0.01;94.60;99789.14;1677421;85;21078;-70
2021/12/08 08:51:23;;;;;;;10.80;7.97;;;;;;;0.00;94.70;99790.81;1657640;85;21505;-72
2021/12/08 08:53:54;;;;;;;9.00;7.53;;;;;;;0.02;94.69;99782.33;1685152;84;21519;-72
2021/12/08 08:56:28;;;;;;;12.63;7.67;;;;;;;0.02;94.78;99787.58;1684488;84;20991;-64
2021/12/08 08:59:00;;;;;;;8.37;6.73;;;;;;;0.02;94.77;99786.27;1684361;84;21047;-65
2021/12/08 09:01:34;;;;;;;9.30;7.53;;;;;;;0.02;94.73;99785.41;1683792;85;21007;-64
2021/12/08 09:04:15;;;;;;;13.33;8.57;;;;;;;0.02;94.84;99787.58;1681386;85;21521;-63
2021/12/08 09:06:47;;;;;;;9.80;7.17;;;;;;;0.01;94.61;99778.05;1661817;86;21030;-65
2021/12/08 09:09:21;;;;;;;7.87;5.07;;;;;;;0.02;94.70;99788.03;1656619;85;21062;-67
2021/12/08 09:12:08;;;;;;;13.40;8.60;;;;;;;-0.02;94.54;99782.23;1650530;84;20991;-65
2021/12/08 09:14:55;;;;;;;10.08;7.72;;;;;;;-0.03;94.61;99777.97;1658296;85;21146;-65
2021/12/08 09:17:39;;;;;;;9.27;6.87;;;;;;;-0.04;94.79;99788.09;1657357;85;21168;-65
2021/12/08 09:20:31;;;;;;;10.33;6.97;;;;;;;-0.05;94.99;99786.45;1654344;85;21219;-65
2021/12/08 09:23:13;;;;;;;11.97;7.27;;;;;;;-0.03;95.01;99787.14;1654020;84;21124;-65
2021/12/08 09:25:48;;;;;;;9.40;6.37;;;;;;;-0.03;95.01;99783.20;1653446;85;22522;-63
2021/12/08 09:28:21;;;;;;;10.17;8.07;;;;;;;-0.05;94.77;99784.64;1655385;85;21531;-64
2021/12/08 09:30:55;;;;;;;14.13;9.27;;;;;;;-0.06;94.72;99781.70;1655882;85;21042;-65
2021/12/08 09:33:27;;;;;;;6.90;5.90;;;;;;;-0.05;94.90;99793.81;1654338;84;21022;-64
2021/12/08 09:36:01;;;;;;;9.77;7.47;;;;;;;-0.02;94.94;99774.37;1656497;85;21046;-66
2021/12/08 09:38:33;;;;;;;12.60;6.70;;;;;;;-0.01;94.90;99779.97;1655440;85;21039;-65
2021/12/08 09:41:11;;;;;;;11.07;7.00;;;;;;;0.00;94.98;99773.78;1680187;84;21094;-64
2021/12/08 09:43:46;;;;;;;8.87;7.00;;;;;;;0.03;95.00;99780.05;1652903;86;22413;-63
2021/12/08 09:46:20;;;;;;;9.40;6.80;;;;;;;0.07;95.09;99777.98;1683440;85;21042;-65
2021/12/08 09:48:48;;;;;;;9.53;7.30;;;;;;;0.09;95.08;99776.06;1684356;84;20994;-64
2021/12/08 09:51:22;;;;;;;8.77;7.17;;;;;;;0.12;95.07;99772.69;1678085;85;21007;-63
2021/12/08 09:53:49;;;;;;;9.50;6.93;;;;;;;0.14;95.03;99773.37;1668797;85;21022;-64
2021/12/08 09:56:16;;;;;;;;;;;;;;;0.16;95.02;99780.63;1676808;84;21613;-64
2021/12/08 09:58:43;;;;;;;7.97;5.87;;;;;;;0.17;94.85;99775.74;1680578;84;20150;-64
2021/12/08 10:01:15;;;;;;;8.40;6.17;;;;;;;0.12;94.95;99785.80;1676862;83;22302;-64
2021/12/08 10:03:40;;;;;;;5.77;4.70;;;;;;;0.11;94.83;99777.57;1682865;84;21170;-65
2021/12/08 10:08:49;;;;;;;9.50;6.47;;;;;;;0.12;94.76;99774.00;1796790;78;20178;-62
2021/12/08 10:11:18;;;;;;;9.90;6.80;;;;;;;0.10;95.02;99769.38;1789267;78;21046;-64
2021/12/08 10:13:46;;;;;;;9.40;6.47;;;;;;;0.13;95.10;99768.27;1785700;78;21014;-63
2021/12/08 10:16:14;;;;;;;10.63;7.67;;;;;;;0.17;94.99;99771.81;1771331;78;21042;-64
2021/12/08 10:18:43;;;;;;;7.53;5.60;;;;;;;0.18;94.95;99755.10;1800314;78;21042;-65
2021/12/08 10:21:13;;;;;;;6.13;5.43;;;;;;;0.19;94.82;99763.33;1800394;78;21014;-65
2021/12/08 10:23:46;;;;;;;7.73;5.50;;;;;;;0.23;94.84;99763.03;1770636;78;20998;-64
2021/12/08 10:26:17;;;;;;;7.80;6.03;;;;;;;-0.16;94.41;99696.17;1764326;80;21062;-65
2021/12/08 10:28:50;;;;;;;7.90;6.57;;;;;;;0.21;94.72;99746.62;1754927;80;21020;-63
2021/12/08 10:31:26;;;;;;;6.83;5.97;;;;;;;0.23;94.76;99748.63;1760345;80;21026;-65
2021/12/08 10:34:11;;;;;;;8.73;7.30;;;;;;;0.25;94.70;99744.09;1734481;81;21122;-65
2021/12/08 10:36:55;;;;;;;9.00;8.10;;;;;;;0.26;94.69;99748.36;1732941;81;21174;-64
2021/12/08 10:39:38;;;;;;;11.28;8.08;;;;;;;0.27;94.73;99747.41;1720250;82;20996;-65
2021/12/08 10:42:27;;;;;;;8.50;7.03;;;;;;;0.28;94.61;99739.38;1700985;82;21082;-65
2021/12/08 10:45:13;;;;;;;10.90;8.87;;;;;;;0.26;94.55;99732.14;1709535;82;21045;-64
2021/12/08 10:47:53;;;;;;;11.07;8.67;;;;;;;0.26;94.67;99736.08;1724877;82;20972;-64
2021/12/08 10:56:08;;;;;;;10.73;8.97;;;;;;;0.30;94.63;99724.83;1726679;82;21029;-65
2021/12/08 10:58:43;;;;;;;11.53;7.57;;;;;;;0.30;94.68;99722.21;1725160;81;21105;-64
2021/12/08 11:01:16;;;;;;;11.50;8.90;;;;;;;0.31;94.57;99716.84;1709934;82;21032;-64
2021/12/08 11:03:44;;;;;;;12.07;9.43;;;;;;;0.32;94.59;99712.41;1730530;81;20971;-65
2021/12/08 11:06:15;;;;;;;10.73;9.63;;;;;;;0.34;94.62;99722.28;1733457;81;20989;-63
2021/12/08 11:08:44;;;;;;;15.17;11.47;;;;;;;0.37;94.52;99726.77;1706782;83;21093;-64
2021/12/08 11:11:20;;;;;;;13.77;10.60;;;;;;;0.40;94.45;99724.38;1735190;81;21535;-64
2021/12/08 11:13:50;;;;;;;12.77;10.23;;;;;;;0.41;94.29;99722.08;1741218;81;21041;-64
2021/12/08 11:16:33;;;;;;;13.80;9.93;;;;;;;0.42;94.37;99717.69;1750652;82;21470;-66
2021/12/08 11:19:06;;;;;;;11.50;9.20;;;;;;;0.42;94.51;99718.50;1753348;81;21153;-63
2021/12/08 11:21:38;;;;;;;10.17;9.00;;;;;;;0.42;94.42;99715.88;1752646;80;21041;-64
2021/12/08 11:24:32;;;;;;;13.40;9.20;;;;;;;0.38;94.18;99718.44;1753154;80;21049;-64
2021/12/08 11:26:54;;;;;;;9.33;7.42;;;;;;;0.36;94.34;99723.00;1764312;80;21026;-64
2021/12/08 11:29:25;;;;;;;12.00;8.30;;;;;;;0.36;94.45;99717.27;1772111;80;21013;-63
2021/12/08 11:34:47;;;;;;;10.07;7.80;;;;;;;0.38;94.58;99713.20;1779960;75;22215;-63
2021/12/08 11:37:21;;;;;;;12.27;9.30;;;;;;;0.33;94.76;99712.77;1728111;81;21064;-63
2021/12/08 11:39:55;;;;;;;8.73;6.33;;;;;;;0.36;94.78;99708.09;1696421;83;21024;-64
2021/12/08 11:42:25;;;;;;;12.27;9.00;;;;;;;0.38;94.77;99692.22;1671638;84;21021;-63
2021/12/08 11:44:56;;;;;;;11.67;9.07;;;;;;;0.38;94.70;99702.70;1705188;81;21045;-62
2021/12/08 11:47:34;;;;;;;10.40;8.20;;;;;;;0.38;94.81;99694.84;1671926;84;21067;-63
2021/12/08 11:50:21;;;;;;;10.20;8.90;;;;;;;0.36;94.62;99700.71;1673948;84;21053;-64
2021/12/08 11:52:53;;;;;;;11.60;8.83;;;;;;;0.35;94.80;99701.66;1696129;83;21063;-64
2021/12/08 11:55:23;;;;;;;8.00;6.60;;;;;;;0.32;95.03;99690.98;1685669;83;21057;-65
2021/12/08 11:57:58;;;;;;;10.90;8.63;;;;;;;0.31;94.98;99681.94;1667233;84;21034;-65
2021/12/08 12:00:30;;;;;;;10.23;7.90;;;;;;;0.28;95.10;99679.09;1664049;83;21543;-65
2021/12/08 12:03:01;;;;;;;10.87;8.77;;;;;;;0.29;95.22;99670.77;1668837;84;21029;-64
2021/12/08 12:05:39;;;;;;;9.17;7.50;;;;;;;0.31;95.35;99667.52;1651940;85;21096;-65
2021/12/08 12:08:10;;;;;;;10.67;8.70;;;;;;;0.31;95.31;99676.70;1663186;84;21129;-63
2021/12/08 12:10:43;;;;;;;10.33;7.40;;;;;;;0.31;95.32;99674.89;1651956;85;21063;-64
2021/12/08 12:13:10;;;;;;;8.23;7.23;;;;;;;0.29;95.23;99668.97;1624060;84;21035;-64
2021/12/08 12:15:42;;;;;;;10.17;7.80;;;;;;;0.26;95.16;99674.96;1652879;85;21087;-64
2021/12/08 12:18:08;;;;;;;10.37;8.03;;;;;;;0.24;95.31;99675.59;1651035;86;21046;-64
2021/12/08 12:21:13;;;;;;;;;;;;;;;0.23;95.54;99679.16;1668606;84;21620;-63
2021/12/08 12:24:33;;;;;;;10.37;8.20;;;;;;;0.23;95.65;99675.23;1640490;86;20164;-63
2021/12/08 12:27:19;;;;;;;;;;;;;;;0.18;95.94;99693.52;1631740;86;21143;-63
2021/12/08 12:30:19;;;;;;;14.77;9.93;;;;;;;0.17;95.93;99691.02;1625971;86;20199;-62
2021/12/08 12:32:54;;;;;;;11.87;8.73;;;;;;;0.11;96.27;99688.47;1666682;84;21084;-62
2021/12/08 12:35:28;;;;;;;11.00;9.03;;;;;;;0.14;96.44;99688.20;1646269;85;21018;-64
2021/12/08 12:38:06;;;;;;;15.67;11.60;;;;;;;0.15;96.41;99697.73;1644383;86;21077;-63
2021/12/08 12:40:41;;;;;;;14.13;12.03;;;;;;;0.15;96.41;99686.40;1637476;86;21176;-63
2021/12/08 12:43:08;;;;;;;17.40;13.83;;;;;;;0.18;96.48;99688.76;1640017;86;21057;-66
2021/12/08 12:45:44;;;;;;;14.07;11.27;;;;;;;0.18;96.49;99690.07;1659642;84;20954;-64